Terminal Aerodrome Forecast
Issued by NWS Amarillo, TX

Home | Current Version | Previous Version | Text Only | Print | Product List | Glossary On
Versions: 1 2 3 4 5 6 7 8 9 10 11 12 13 14 15 16 17 18 19 20 21 22 23 24 25 26 27 28 29 30 31 32 33 34 35 36 37 38 39 40 41 42 43 44 45 46 47 48 49 50
000
FTUS44 KAMA 170245 AAD
TAFAMA
TAF AMD
KAMA 170245Z 1703/1724 12016G26KT P6SM VCTS BKN080CB
     FM170330 15019KT P6SM SCT080
     FM170500 20010KT P6SM SCT080
     FM171400 19018G28KT P6SM FEW120=

USA.gov is the U.S. government's official web portal to all federal, state and local government web resources and services.